sensor_id;sensor_type;location;lat;lon;timestamp;P1;durP1;ratioP1;P2;durP2;ratioP2
75542;SDS011;64129;53.508;10.476;2023-08-12T00:01:53;4.05;;;2.85;;
75542;SDS011;64129;53.508;10.476;2023-08-12T00:04:20;4.22;;;2.38;;
75542;SDS011;64129;53.508;10.476;2023-08-12T00:06:47;3.28;;;2.95;;
75542;SDS011;64129;53.508;10.476;2023-08-12T00:09:14;3.35;;;2.80;;
75542;SDS011;64129;53.508;10.476;2023-08-12T00:11:41;4.50;;;2.60;;
75542;SDS011;64129;53.508;10.476;2023-08-12T00:14:08;5.38;;;3.40;;
75542;SDS011;64129;53.508;10.476;2023-08-12T00:16:35;4.35;;;2.65;;
75542;SDS011;64129;53.508;10.476;2023-08-12T00:19:01;3.28;;;2.60;;
75542;SDS011;64129;53.508;10.476;2023-08-12T00:21:28;6.18;;;2.60;;
75542;SDS011;64129;53.508;10.476;2023-08-12T00:23:54;3.92;;;2.55;;
75542;SDS011;64129;53.508;10.476;2023-08-12T00:26:21;4.18;;;2.70;;
75542;SDS011;64129;53.508;10.476;2023-08-12T00:28:49;3.45;;;2.42;;
75542;SDS011;64129;53.508;10.476;2023-08-12T00:31:16;6.18;;;3.05;;
75542;SDS011;64129;53.508;10.476;2023-08-12T00:33:42;2.78;;;2.50;;
75542;SDS011;64129;53.508;10.476;2023-08-12T00:36:09;3.67;;;2.58;;
75542;SDS011;64129;53.508;10.476;2023-08-12T00:38:36;7.13;;;2.63;;
75542;SDS011;64129;53.508;10.476;2023-08-12T00:41:03;3.50;;;2.55;;
75542;SDS011;64129;53.508;10.476;2023-08-12T00:43:29;3.85;;;2.78;;
75542;SDS011;64129;53.508;10.476;2023-08-12T00:45:56;6.32;;;3.13;;
75542;SDS011;64129;53.508;10.476;2023-08-12T00:48:23;3.20;;;2.72;;
75542;SDS011;64129;53.508;10.476;2023-08-12T00:50:49;3.13;;;2.83;;
75542;SDS011;64129;53.508;10.476;2023-08-12T00:53:16;2.83;;;2.22;;
75542;SDS011;64129;53.508;10.476;2023-08-12T00:55:43;5.00;;;2.53;;
75542;SDS011;64129;53.508;10.476;2023-08-12T00:58:10;3.85;;;3.00;;
75542;SDS011;64129;53.508;10.476;2023-08-12T01:00:40;6.32;;;2.70;;
75542;SDS011;64129;53.508;10.476;2023-08-12T01:03:06;3.15;;;2.50;;
75542;SDS011;64129;53.508;10.476;2023-08-12T01:05:33;4.50;;;2.53;;
75542;SDS011;64129;53.508;10.476;2023-08-12T01:08:00;3.42;;;2.40;;
75542;SDS011;64129;53.508;10.476;2023-08-12T01:10:28;3.50;;;2.80;;
75542;SDS011;64129;53.508;10.476;2023-08-12T01:13:06;3.15;;;2.75;;
75542;SDS011;64129;53.508;10.476;2023-08-12T01:15:39;3.03;;;2.50;;
75542;SDS011;64129;53.508;10.476;2023-08-12T01:18:08;3.65;;;2.53;;
75542;SDS011;64129;53.508;10.476;2023-08-12T01:20:36;3.55;;;2.75;;
75542;SDS011;64129;53.508;10.476;2023-08-12T01:23:11;3.95;;;2.55;;
75542;SDS011;64129;53.508;10.476;2023-08-12T01:25:39;3.67;;;2.42;;
75542;SDS011;64129;53.508;10.476;2023-08-12T01:28:07;2.65;;;2.38;;
75542;SDS011;64129;53.508;10.476;2023-08-12T01:30:34;5.10;;;2.65;;
75542;SDS011;64129;53.508;10.476;2023-08-12T01:33:09;3.20;;;2.50;;
75542;SDS011;64129;53.508;10.476;2023-08-12T01:35:54;2.88;;;2.42;;
75542;SDS011;64129;53.508;10.476;2023-08-12T01:38:31;4.55;;;2.75;;
75542;SDS011;64129;53.508;10.476;2023-08-12T01:40:59;4.82;;;2.60;;
75542;SDS011;64129;53.508;10.476;2023-08-12T01:43:27;3.65;;;2.50;;
75542;SDS011;64129;53.508;10.476;2023-08-12T01:45:55;3.15;;;2.83;;
75542;SDS011;64129;53.508;10.476;2023-08-12T01:48:22;4.85;;;2.67;;
75542;SDS011;64129;53.508;10.476;2023-08-12T01:50:49;4.25;;;2.80;;
75542;SDS011;64129;53.508;10.476;2023-08-12T01:53:16;2.92;;;2.63;;
75542;SDS011;64129;53.508;10.476;2023-08-12T01:55:43;3.40;;;2.58;;
75542;SDS011;64129;53.508;10.476;2023-08-12T01:58:11;3.60;;;2.40;;
75542;SDS011;64129;53.508;10.476;2023-08-12T02:00:37;3.20;;;2.90;;
75542;SDS011;64129;53.508;10.476;2023-08-12T02:03:04;2.80;;;2.60;;
75542;SDS011;64129;53.508;10.476;2023-08-12T02:05:30;3.05;;;2.72;;
75542;SDS011;64129;53.508;10.476;2023-08-12T02:07:57;2.83;;;2.50;;
75542;SDS011;64129;53.508;10.476;2023-08-12T02:10:23;2.95;;;2.50;;
75542;SDS011;64129;53.508;10.476;2023-08-12T02:12:52;3.88;;;2.80;;
75542;SDS011;64129;53.508;10.476;2023-08-12T02:15:18;3.10;;;2.78;;
75542;SDS011;64129;53.508;10.476;2023-08-12T02:17:45;3.42;;;2.40;;
75542;SDS011;64129;53.508;10.476;2023-08-12T02:20:11;3.25;;;2.60;;
75542;SDS011;64129;53.508;10.476;2023-08-12T02:22:38;3.17;;;2.83;;
75542;SDS011;64129;53.508;10.476;2023-08-12T02:25:04;4.25;;;2.50;;
75542;SDS011;64129;53.508;10.476;2023-08-12T02:27:31;3.55;;;2.70;;
75542;SDS011;64129;53.508;10.476;2023-08-12T02:29:57;2.72;;;2.42;;
75542;SDS011;64129;53.508;10.476;2023-08-12T02:32:26;3.33;;;2.72;;
75542;SDS011;64129;53.508;10.476;2023-08-12T02:34:53;3.97;;;2.55;;
75542;SDS011;64129;53.508;10.476;2023-08-12T02:37:19;2.80;;;2.60;;
75542;SDS011;64129;53.508;10.476;2023-08-12T02:39:46;4.90;;;2.83;;
75542;SDS011;64129;53.508;10.476;2023-08-12T02:42:13;3.08;;;2.72;;
75542;SDS011;64129;53.508;10.476;2023-08-12T02:44:39;2.78;;;2.55;;
75542;SDS011;64129;53.508;10.476;2023-08-12T02:47:06;2.88;;;2.58;;
75542;SDS011;64129;53.508;10.476;2023-08-12T02:49:32;3.35;;;2.58;;
75542;SDS011;64129;53.508;10.476;2023-08-12T02:51:59;5.22;;;2.92;;
75542;SDS011;64129;53.508;10.476;2023-08-12T02:54:25;5.32;;;2.58;;
75542;SDS011;64129;53.508;10.476;2023-08-12T02:56:52;2.55;;;2.35;;
75542;SDS011;64129;53.508;10.476;2023-08-12T02:59:18;4.28;;;2.95;;
75542;SDS011;64129;53.508;10.476;2023-08-12T03:01:45;3.58;;;3.03;;
75542;SDS011;64129;53.508;10.476;2023-08-12T03:04:11;4.43;;;3.15;;
75542;SDS011;64129;53.508;10.476;2023-08-12T03:06:38;3.42;;;2.65;;
75542;SDS011;64129;53.508;10.476;2023-08-12T03:09:05;4.68;;;2.83;;
75542;SDS011;64129;53.508;10.476;2023-08-12T03:11:32;3.10;;;2.58;;
75542;SDS011;64129;53.508;10.476;2023-08-12T03:14:00;5.32;;;2.90;;
75542;SDS011;64129;53.508;10.476;2023-08-12T03:16:27;4.38;;;2.80;;
75542;SDS011;64129;53.508;10.476;2023-08-12T03:18:53;2.85;;;2.58;;
75542;SDS011;64129;53.508;10.476;2023-08-12T03:21:20;4.43;;;2.50;;
75542;SDS011;64129;53.508;10.476;2023-08-12T03:23:47;5.75;;;2.80;;
75542;SDS011;64129;53.508;10.476;2023-08-12T03:26:14;4.30;;;2.90;;
75542;SDS011;64129;53.508;10.476;2023-08-12T03:28:41;3.70;;;2.88;;
75542;SDS011;64129;53.508;10.476;2023-08-12T03:31:09;4.60;;;3.17;;
75542;SDS011;64129;53.508;10.476;2023-08-12T03:33:35;3.70;;;2.50;;
75542;SDS011;64129;53.508;10.476;2023-08-12T03:36:03;3.25;;;2.95;;
75542;SDS011;64129;53.508;10.476;2023-08-12T03:38:30;3.00;;;2.70;;
75542;SDS011;64129;53.508;10.476;2023-08-12T03:40:56;3.63;;;3.00;;
75542;SDS011;64129;53.508;10.476;2023-08-12T03:43:23;3.60;;;2.70;;
75542;SDS011;64129;53.508;10.476;2023-08-12T03:45:50;4.07;;;2.30;;
75542;SDS011;64129;53.508;10.476;2023-08-12T03:48:18;4.18;;;2.90;;
75542;SDS011;64129;53.508;10.476;2023-08-12T03:50:45;3.15;;;2.67;;
75542;SDS011;64129;53.508;10.476;2023-08-12T03:55:39;3.53;;;2.95;;
75542;SDS011;64129;53.508;10.476;2023-08-12T03:58:07;3.40;;;2.63;;
75542;SDS011;64129;53.508;10.476;2023-08-12T04:00:34;3.47;;;3.17;;
75542;SDS011;64129;53.508;10.476;2023-08-12T04:05:28;3.22;;;2.65;;
75542;SDS011;64129;53.508;10.476;2023-08-12T04:07:54;3.05;;;2.60;;
75542;SDS011;64129;53.508;10.476;2023-08-12T04:10:21;3.65;;;3.33;;
75542;SDS011;64129;53.508;10.476;2023-08-12T04:12:47;2.83;;;2.63;;
75542;SDS011;64129;53.508;10.476;2023-08-12T04:15:14;3.53;;;2.92;;
75542;SDS011;64129;53.508;10.476;2023-08-12T04:17:41;4.32;;;3.05;;
75542;SDS011;64129;53.508;10.476;2023-08-12T04:20:08;3.63;;;3.15;;
75542;SDS011;64129;53.508;10.476;2023-08-12T04:22:35;3.75;;;3.10;;
75542;SDS011;64129;53.508;10.476;2023-08-12T04:25:02;3.17;;;2.88;;
75542;SDS011;64129;53.508;10.476;2023-08-12T04:27:29;3.78;;;3.47;;
75542;SDS011;64129;53.508;10.476;2023-08-12T04:29:57;6.35;;;3.53;;
75542;SDS011;64129;53.508;10.476;2023-08-12T04:32:25;3.45;;;2.92;;
75542;SDS011;64129;53.508;10.476;2023-08-12T04:34:52;4.80;;;2.97;;
75542;SDS011;64129;53.508;10.476;2023-08-12T04:37:19;3.83;;;3.20;;
75542;SDS011;64129;53.508;10.476;2023-08-12T04:39:46;4.43;;;3.15;;
75542;SDS011;64129;53.508;10.476;2023-08-12T04:42:13;3.25;;;2.92;;
75542;SDS011;64129;53.508;10.476;2023-08-12T04:44:40;3.60;;;2.88;;
75542;SDS011;64129;53.508;10.476;2023-08-12T04:47:07;4.05;;;3.38;;
75542;SDS011;64129;53.508;10.476;2023-08-12T04:49:35;3.53;;;3.00;;
75542;SDS011;64129;53.508;10.476;2023-08-12T04:52:02;3.47;;;2.80;;
75542;SDS011;64129;53.508;10.476;2023-08-12T04:54:29;3.28;;;2.92;;
75542;SDS011;64129;53.508;10.476;2023-08-12T04:56:55;3.58;;;2.60;;
75542;SDS011;64129;53.508;10.476;2023-08-12T04:59:23;4.78;;;2.95;;
75542;SDS011;64129;53.508;10.476;2023-08-12T05:01:49;4.95;;;2.78;;
75542;SDS011;64129;53.508;10.476;2023-08-12T05:04:24;3.25;;;2.85;;
75542;SDS011;64129;53.508;10.476;2023-08-12T05:06:51;3.45;;;2.90;;
75542;SDS011;64129;53.508;10.476;2023-08-12T05:09:18;3.53;;;2.88;;
75542;SDS011;64129;53.508;10.476;2023-08-12T05:11:45;4.65;;;2.85;;
75542;SDS011;64129;53.508;10.476;2023-08-12T05:14:11;3.40;;;3.10;;
75542;SDS011;64129;53.508;10.476;2023-08-12T05:16:38;3.67;;;3.33;;
75542;SDS011;64129;53.508;10.476;2023-08-12T05:19:04;2.95;;;2.65;;
75542;SDS011;64129;53.508;10.476;2023-08-12T05:21:31;3.08;;;2.78;;
75542;SDS011;64129;53.508;10.476;2023-08-12T05:23:58;4.85;;;3.00;;
75542;SDS011;64129;53.508;10.476;2023-08-12T05:26:24;3.20;;;2.90;;
75542;SDS011;64129;53.508;10.476;2023-08-12T05:28:51;2.97;;;2.67;;
75542;SDS011;64129;53.508;10.476;2023-08-12T05:31:17;5.03;;;2.75;;
75542;SDS011;64129;53.508;10.476;2023-08-12T05:33:44;3.83;;;3.30;;
75542;SDS011;64129;53.508;10.476;2023-08-12T05:36:10;6.55;;;3.00;;
75542;SDS011;64129;53.508;10.476;2023-08-12T05:38:37;3.88;;;2.80;;
75542;SDS011;64129;53.508;10.476;2023-08-12T05:41:03;3.13;;;2.70;;
75542;SDS011;64129;53.508;10.476;2023-08-12T05:43:33;5.38;;;3.50;;
75542;SDS011;64129;53.508;10.476;2023-08-12T05:46:00;3.40;;;2.95;;
75542;SDS011;64129;53.508;10.476;2023-08-12T05:48:26;4.18;;;2.88;;
75542;SDS011;64129;53.508;10.476;2023-08-12T05:50:54;3.47;;;3.13;;
75542;SDS011;64129;53.508;10.476;2023-08-12T05:53:21;5.28;;;2.90;;
75542;SDS011;64129;53.508;10.476;2023-08-12T05:55:48;3.15;;;2.95;;
75542;SDS011;64129;53.508;10.476;2023-08-12T05:58:14;4.28;;;2.83;;
75542;SDS011;64129;53.508;10.476;2023-08-12T06:00:41;4.57;;;3.00;;
75542;SDS011;64129;53.508;10.476;2023-08-12T06:03:11;2.95;;;2.75;;
75542;SDS011;64129;53.508;10.476;2023-08-12T06:05:40;4.00;;;3.30;;
75542;SDS011;64129;53.508;10.476;2023-08-12T06:08:07;3.22;;;2.92;;
75542;SDS011;64129;53.508;10.476;2023-08-12T06:10:34;3.80;;;3.50;;
75542;SDS011;64129;53.508;10.476;2023-08-12T06:15:35;3.05;;;2.85;;
75542;SDS011;64129;53.508;10.476;2023-08-12T06:18:02;6.88;;;3.53;;
75542;SDS011;64129;53.508;10.476;2023-08-12T06:20:29;3.58;;;2.97;;
75542;SDS011;64129;53.508;10.476;2023-08-12T06:22:56;4.10;;;2.80;;
75542;SDS011;64129;53.508;10.476;2023-08-12T06:25:22;4.25;;;3.40;;
75542;SDS011;64129;53.508;10.476;2023-08-12T06:27:49;5.97;;;4.03;;
75542;SDS011;64129;53.508;10.476;2023-08-12T06:30:15;2.70;;;2.50;;
75542;SDS011;64129;53.508;10.476;2023-08-12T06:32:42;5.57;;;2.92;;
75542;SDS011;64129;53.508;10.476;2023-08-12T06:35:08;3.67;;;3.00;;
75542;SDS011;64129;53.508;10.476;2023-08-12T06:37:35;6.22;;;2.95;;
75542;SDS011;64129;53.508;10.476;2023-08-12T06:40:02;3.47;;;2.47;;
75542;SDS011;64129;53.508;10.476;2023-08-12T06:42:29;4.78;;;2.95;;
75542;SDS011;64129;53.508;10.476;2023-08-12T06:44:57;3.70;;;3.40;;
75542;SDS011;64129;53.508;10.476;2023-08-12T06:47:25;3.22;;;2.92;;
75542;SDS011;64129;53.508;10.476;2023-08-12T06:49:53;4.68;;;2.97;;
75542;SDS011;64129;53.508;10.476;2023-08-12T06:52:20;4.90;;;3.40;;
75542;SDS011;64129;53.508;10.476;2023-08-12T06:54:46;3.65;;;2.97;;
75542;SDS011;64129;53.508;10.476;2023-08-12T06:57:13;4.57;;;3.08;;
75542;SDS011;64129;53.508;10.476;2023-08-12T06:59:39;6.20;;;3.08;;
75542;SDS011;64129;53.508;10.476;2023-08-12T07:02:06;3.33;;;2.90;;
75542;SDS011;64129;53.508;10.476;2023-08-12T07:04:33;3.40;;;3.10;;
75542;SDS011;64129;53.508;10.476;2023-08-12T07:06:59;3.50;;;2.85;;
75542;SDS011;64129;53.508;10.476;2023-08-12T07:09:26;4.15;;;2.90;;
75542;SDS011;64129;53.508;10.476;2023-08-12T07:11:52;4.00;;;2.97;;
75542;SDS011;64129;53.508;10.476;2023-08-12T07:14:19;5.00;;;3.35;;
75542;SDS011;64129;53.508;10.476;2023-08-12T07:16:45;4.60;;;3.30;;
75542;SDS011;64129;53.508;10.476;2023-08-12T07:19:12;4.25;;;3.17;;
75542;SDS011;64129;53.508;10.476;2023-08-12T07:21:39;4.20;;;3.38;;
75542;SDS011;64129;53.508;10.476;2023-08-12T07:24:06;4.97;;;3.45;;
75542;SDS011;64129;53.508;10.476;2023-08-12T07:26:32;5.25;;;3.22;;
75542;SDS011;64129;53.508;10.476;2023-08-12T07:28:59;5.53;;;3.70;;
75542;SDS011;64129;53.508;10.476;2023-08-12T07:31:25;4.97;;;3.50;;
75542;SDS011;64129;53.508;10.476;2023-08-12T07:33:52;6.65;;;3.90;;
75542;SDS011;64129;53.508;10.476;2023-08-12T07:36:18;3.88;;;3.10;;
75542;SDS011;64129;53.508;10.476;2023-08-12T07:38:45;5.30;;;3.67;;
75542;SDS011;64129;53.508;10.476;2023-08-12T07:41:11;6.82;;;3.67;;
75542;SDS011;64129;53.508;10.476;2023-08-12T07:43:38;3.88;;;3.22;;
75542;SDS011;64129;53.508;10.476;2023-08-12T07:46:05;5.18;;;3.67;;
75542;SDS011;64129;53.508;10.476;2023-08-12T07:48:34;5.70;;;3.72;;
75542;SDS011;64129;53.508;10.476;2023-08-12T07:51:01;4.45;;;4.03;;
75542;SDS011;64129;53.508;10.476;2023-08-12T07:53:27;3.83;;;3.53;;
75542;SDS011;64129;53.508;10.476;2023-08-12T07:55:54;5.10;;;3.65;;
75542;SDS011;64129;53.508;10.476;2023-08-12T07:58:20;8.55;;;4.53;;
75542;SDS011;64129;53.508;10.476;2023-08-12T08:00:47;5.35;;;3.75;;
75542;SDS011;64129;53.508;10.476;2023-08-12T08:03:13;5.30;;;3.83;;
75542;SDS011;64129;53.508;10.476;2023-08-12T08:05:40;5.78;;;3.60;;
75542;SDS011;64129;53.508;10.476;2023-08-12T08:08:08;5.22;;;3.90;;
75542;SDS011;64129;53.508;10.476;2023-08-12T08:10:34;7.10;;;4.45;;
75542;SDS011;64129;53.508;10.476;2023-08-12T08:13:01;5.40;;;4.05;;
75542;SDS011;64129;53.508;10.476;2023-08-12T08:15:28;4.32;;;3.92;;
75542;SDS011;64129;53.508;10.476;2023-08-12T08:17:54;6.57;;;4.80;;
75542;SDS011;64129;53.508;10.476;2023-08-12T08:20:21;5.88;;;4.18;;
75542;SDS011;64129;53.508;10.476;2023-08-12T08:22:47;4.47;;;3.85;;
75542;SDS011;64129;53.508;10.476;2023-08-12T08:25:14;6.55;;;4.25;;
75542;SDS011;64129;53.508;10.476;2023-08-12T08:27:40;4.68;;;3.90;;
75542;SDS011;64129;53.508;10.476;2023-08-12T08:30:09;4.93;;;3.53;;
75542;SDS011;64129;53.508;10.476;2023-08-12T08:32:35;5.60;;;4.35;;
75542;SDS011;64129;53.508;10.476;2023-08-12T08:35:02;4.82;;;3.97;;
75542;SDS011;64129;53.508;10.476;2023-08-12T08:37:29;5.90;;;3.90;;
75542;SDS011;64129;53.508;10.476;2023-08-12T08:39:55;5.47;;;3.88;;
75542;SDS011;64129;53.508;10.476;2023-08-12T08:42:22;4.50;;;3.50;;
75542;SDS011;64129;53.508;10.476;2023-08-12T08:44:53;5.32;;;3.78;;
75542;SDS011;64129;53.508;10.476;2023-08-12T08:47:26;7.07;;;4.22;;
75542;SDS011;64129;53.508;10.476;2023-08-12T08:49:54;4.55;;;3.47;;
75542;SDS011;64129;53.508;10.476;2023-08-12T08:52:24;7.72;;;4.20;;
75542;SDS011;64129;53.508;10.476;2023-08-12T08:54:51;6.63;;;4.53;;
75542;SDS011;64129;53.508;10.476;2023-08-12T08:57:18;6.30;;;4.15;;
75542;SDS011;64129;53.508;10.476;2023-08-12T08:59:46;5.55;;;4.22;;
75542;SDS011;64129;53.508;10.476;2023-08-12T09:02:16;4.85;;;4.10;;
75542;SDS011;64129;53.508;10.476;2023-08-12T09:04:44;5.70;;;4.10;;
75542;SDS011;64129;53.508;10.476;2023-08-12T09:07:12;4.72;;;3.65;;
75542;SDS011;64129;53.508;10.476;2023-08-12T09:09:40;7.60;;;4.57;;
75542;SDS011;64129;53.508;10.476;2023-08-12T09:12:15;5.78;;;4.15;;
75542;SDS011;64129;53.508;10.476;2023-08-12T09:14:43;4.78;;;4.20;;
75542;SDS011;64129;53.508;10.476;2023-08-12T09:17:10;6.38;;;4.25;;
75542;SDS011;64129;53.508;10.476;2023-08-12T09:19:36;5.50;;;3.72;;
75542;SDS011;64129;53.508;10.476;2023-08-12T09:22:03;6.63;;;4.22;;
75542;SDS011;64129;53.508;10.476;2023-08-12T09:24:31;4.20;;;3.75;;
75542;SDS011;64129;53.508;10.476;2023-08-12T09:26:58;5.03;;;3.53;;
75542;SDS011;64129;53.508;10.476;2023-08-12T09:29:31;5.40;;;4.15;;
75542;SDS011;64129;53.508;10.476;2023-08-12T09:32:09;4.50;;;4.07;;
75542;SDS011;64129;53.508;10.476;2023-08-12T09:34:49;5.85;;;3.90;;
75542;SDS011;64129;53.508;10.476;2023-08-12T09:37:20;7.55;;;3.90;;
75542;SDS011;64129;53.508;10.476;2023-08-12T09:39:48;6.85;;;4.20;;
75542;SDS011;64129;53.508;10.476;2023-08-12T09:42:16;5.38;;;4.30;;
75542;SDS011;64129;53.508;10.476;2023-08-12T09:44:43;4.55;;;4.15;;
75542;SDS011;64129;53.508;10.476;2023-08-12T09:47:11;5.60;;;3.72;;
75542;SDS011;64129;53.508;10.476;2023-08-12T09:49:38;5.32;;;4.07;;
75542;SDS011;64129;53.508;10.476;2023-08-12T09:52:05;4.78;;;4.30;;
75542;SDS011;64129;53.508;10.476;2023-08-12T09:54:33;6.20;;;4.22;;
75542;SDS011;64129;53.508;10.476;2023-08-12T09:57:02;4.30;;;3.67;;
75542;SDS011;64129;53.508;10.476;2023-08-12T09:59:30;5.20;;;3.80;;
75542;SDS011;64129;53.508;10.476;2023-08-12T10:01:58;4.75;;;3.85;;
75542;SDS011;64129;53.508;10.476;2023-08-12T10:04:27;6.30;;;4.80;;
75542;SDS011;64129;53.508;10.476;2023-08-12T10:06:55;6.25;;;4.18;;
75542;SDS011;64129;53.508;10.476;2023-08-12T10:09:21;4.57;;;3.60;;
75542;SDS011;64129;53.508;10.476;2023-08-12T10:11:49;5.45;;;3.90;;
75542;SDS011;64129;53.508;10.476;2023-08-12T10:14:18;4.57;;;4.18;;
75542;SDS011;64129;53.508;10.476;2023-08-12T10:16:45;4.88;;;4.35;;
75542;SDS011;64129;53.508;10.476;2023-08-12T10:19:13;5.07;;;4.25;;
75542;SDS011;64129;53.508;10.476;2023-08-12T10:21:42;5.00;;;4.20;;
75542;SDS011;64129;53.508;10.476;2023-08-12T10:24:10;4.40;;;4.00;;
75542;SDS011;64129;53.508;10.476;2023-08-12T10:26:38;5.55;;;4.10;;
75542;SDS011;64129;53.508;10.476;2023-08-12T10:29:06;4.72;;;3.72;;
75542;SDS011;64129;53.508;10.476;2023-08-12T10:31:33;4.00;;;3.35;;
75542;SDS011;64129;53.508;10.476;2023-08-12T10:34:00;6.22;;;4.40;;
75542;SDS011;64129;53.508;10.476;2023-08-12T10:36:27;5.25;;;4.07;;
75542;SDS011;64129;53.508;10.476;2023-08-12T10:38:55;5.57;;;4.38;;
75542;SDS011;64129;53.508;10.476;2023-08-12T10:41:23;5.65;;;3.85;;
75542;SDS011;64129;53.508;10.476;2023-08-12T10:49:07;5.68;;;4.20;;
75542;SDS011;64129;53.508;10.476;2023-08-12T10:51:43;4.53;;;4.05;;
75542;SDS011;64129;53.508;10.476;2023-08-12T11:02:17;4.05;;;3.70;;
75542;SDS011;64129;53.508;10.476;2023-08-12T11:04:48;5.97;;;4.38;;
75542;SDS011;64129;53.508;10.476;2023-08-12T11:07:19;8.73;;;4.90;;
75542;SDS011;64129;53.508;10.476;2023-08-12T11:09:51;5.40;;;4.03;;
75542;SDS011;64129;53.508;10.476;2023-08-12T11:12:32;4.70;;;4.25;;
75542;SDS011;64129;53.508;10.476;2023-08-12T11:15:00;5.63;;;3.88;;
75542;SDS011;64129;53.508;10.476;2023-08-12T11:20:03;6.30;;;4.50;;
75542;SDS011;64129;53.508;10.476;2023-08-12T11:22:32;6.00;;;4.30;;
75542;SDS011;64129;53.508;10.476;2023-08-12T11:25:01;4.65;;;4.20;;
75542;SDS011;64129;53.508;10.476;2023-08-12T11:27:28;5.25;;;4.38;;
75542;SDS011;64129;53.508;10.476;2023-08-12T11:29:55;6.10;;;4.53;;
75542;SDS011;64129;53.508;10.476;2023-08-12T11:32:21;4.30;;;3.88;;
75542;SDS011;64129;53.508;10.476;2023-08-12T11:34:48;4.45;;;4.05;;
75542;SDS011;64129;53.508;10.476;2023-08-12T11:37:14;6.47;;;4.32;;
75542;SDS011;64129;53.508;10.476;2023-08-12T11:39:41;6.35;;;4.50;;
75542;SDS011;64129;53.508;10.476;2023-08-12T11:42:08;6.07;;;4.25;;
75542;SDS011;64129;53.508;10.476;2023-08-12T11:44:35;4.95;;;4.13;;
75542;SDS011;64129;53.508;10.476;2023-08-12T11:47:01;5.45;;;4.43;;
75542;SDS011;64129;53.508;10.476;2023-08-12T11:49:28;6.47;;;4.82;;
75542;SDS011;64129;53.508;10.476;2023-08-12T11:51:55;4.60;;;4.18;;
75542;SDS011;64129;53.508;10.476;2023-08-12T11:54:21;6.75;;;4.22;;
75542;SDS011;64129;53.508;10.476;2023-08-12T11:56:48;5.63;;;4.50;;
75542;SDS011;64129;53.508;10.476;2023-08-12T11:59:15;5.95;;;4.75;;
75542;SDS011;64129;53.508;10.476;2023-08-12T12:01:45;4.40;;;4.00;;
75542;SDS011;64129;53.508;10.476;2023-08-12T12:04:15;7.35;;;3.92;;
75542;SDS011;64129;53.508;10.476;2023-08-12T12:06:42;6.30;;;4.25;;
75542;SDS011;64129;53.508;10.476;2023-08-12T12:09:09;5.05;;;3.70;;
75542;SDS011;64129;53.508;10.476;2023-08-12T12:11:37;5.00;;;4.28;;
75542;SDS011;64129;53.508;10.476;2023-08-12T12:16:59;4.78;;;4.00;;
75542;SDS011;64129;53.508;10.476;2023-08-12T12:19:25;7.40;;;6.20;;
75542;SDS011;64129;53.508;10.476;2023-08-12T12:21:53;9.27;;;6.20;;
75542;SDS011;64129;53.508;10.476;2023-08-12T12:24:20;6.65;;;5.38;;
75542;SDS011;64129;53.508;10.476;2023-08-12T12:26:47;6.47;;;5.88;;
75542;SDS011;64129;53.508;10.476;2023-08-12T12:29:13;6.15;;;5.03;;
75542;SDS011;64129;53.508;10.476;2023-08-12T12:31:40;7.43;;;5.25;;
75542;SDS011;64129;53.508;10.476;2023-08-12T12:34:07;7.10;;;6.40;;
75542;SDS011;64129;53.508;10.476;2023-08-12T12:36:36;6.70;;;4.97;;
75542;SDS011;64129;53.508;10.476;2023-08-12T12:39:04;6.13;;;5.63;;
75542;SDS011;64129;53.508;10.476;2023-08-12T12:41:31;6.80;;;5.85;;
75542;SDS011;64129;53.508;10.476;2023-08-12T12:43:59;7.82;;;5.63;;
75542;SDS011;64129;53.508;10.476;2023-08-12T12:46:26;6.30;;;5.63;;
75542;SDS011;64129;53.508;10.476;2023-08-12T12:48:52;7.18;;;6.30;;
75542;SDS011;64129;53.508;10.476;2023-08-12T12:51:19;9.18;;;6.55;;
75542;SDS011;64129;53.508;10.476;2023-08-12T12:53:45;11.40;;;6.82;;
75542;SDS011;64129;53.508;10.476;2023-08-12T12:56:12;8.77;;;6.25;;
75542;SDS011;64129;53.508;10.476;2023-08-12T12:58:39;7.22;;;6.53;;
75542;SDS011;64129;53.508;10.476;2023-08-12T13:01:06;10.70;;;7.32;;
75542;SDS011;64129;53.508;10.476;2023-08-12T13:03:32;7.75;;;6.57;;
75542;SDS011;64129;53.508;10.476;2023-08-12T13:06:00;8.90;;;6.85;;
75542;SDS011;64129;53.508;10.476;2023-08-12T13:08:28;8.18;;;6.28;;
75542;SDS011;64129;53.508;10.476;2023-08-12T13:10:57;7.70;;;6.38;;
75542;SDS011;64129;53.508;10.476;2023-08-12T13:13:23;7.63;;;6.78;;
75542;SDS011;64129;53.508;10.476;2023-08-12T13:15:50;9.98;;;7.10;;
75542;SDS011;64129;53.508;10.476;2023-08-12T13:18:18;6.43;;;5.68;;
75542;SDS011;64129;53.508;10.476;2023-08-12T13:20:44;6.75;;;5.25;;
75542;SDS011;64129;53.508;10.476;2023-08-12T13:23:11;10.40;;;6.47;;
75542;SDS011;64129;53.508;10.476;2023-08-12T13:25:38;7.40;;;5.95;;
75542;SDS011;64129;53.508;10.476;2023-08-12T13:28:04;7.05;;;6.05;;
75542;SDS011;64129;53.508;10.476;2023-08-12T13:30:31;9.07;;;5.72;;
75542;SDS011;64129;53.508;10.476;2023-08-12T13:32:58;5.90;;;5.38;;
75542;SDS011;64129;53.508;10.476;2023-08-12T13:35:26;8.32;;;6.15;;
75542;SDS011;64129;53.508;10.476;2023-08-12T13:37:53;5.95;;;5.43;;
75542;SDS011;64129;53.508;10.476;2023-08-12T13:40:19;6.13;;;5.60;;
75542;SDS011;64129;53.508;10.476;2023-08-12T13:42:46;6.82;;;5.40;;
75542;SDS011;64129;53.508;10.476;2023-08-12T13:45:13;6.18;;;5.57;;
75542;SDS011;64129;53.508;10.476;2023-08-12T13:47:39;9.02;;;5.55;;
75542;SDS011;64129;53.508;10.476;2023-08-12T13:50:06;8.52;;;5.80;;
75542;SDS011;64129;53.508;10.476;2023-08-12T13:52:33;6.03;;;5.43;;
75542;SDS011;64129;53.508;10.476;2023-08-12T13:55:00;8.68;;;5.80;;
75542;SDS011;64129;53.508;10.476;2023-08-12T13:57:27;6.57;;;5.90;;
75542;SDS011;64129;53.508;10.476;2023-08-12T13:59:53;7.32;;;6.00;;
75542;SDS011;64129;53.508;10.476;2023-08-12T14:02:20;6.15;;;5.57;;
75542;SDS011;64129;53.508;10.476;2023-08-12T14:04:47;8.32;;;6.50;;
75542;SDS011;64129;53.508;10.476;2023-08-12T14:07:13;6.07;;;5.53;;
75542;SDS011;64129;53.508;10.476;2023-08-12T14:09:40;6.82;;;5.65;;
75542;SDS011;64129;53.508;10.476;2023-08-12T14:14:34;7.65;;;5.90;;
75542;SDS011;64129;53.508;10.476;2023-08-12T14:17:00;9.10;;;6.13;;
75542;SDS011;64129;53.508;10.476;2023-08-12T14:19:27;8.60;;;6.80;;
75542;SDS011;64129;53.508;10.476;2023-08-12T14:21:53;6.75;;;6.15;;
75542;SDS011;64129;53.508;10.476;2023-08-12T14:24:20;6.80;;;6.03;;
75542;SDS011;64129;53.508;10.476;2023-08-12T14:26:47;7.60;;;6.55;;
75542;SDS011;64129;53.508;10.476;2023-08-12T14:29:14;7.68;;;5.65;;
75542;SDS011;64129;53.508;10.476;2023-08-12T14:31:40;8.50;;;6.82;;
75542;SDS011;64129;53.508;10.476;2023-08-12T14:34:07;7.10;;;5.72;;
75542;SDS011;64129;53.508;10.476;2023-08-12T14:36:33;6.65;;;6.00;;
75542;SDS011;64129;53.508;10.476;2023-08-12T14:39:02;8.10;;;5.78;;
75542;SDS011;64129;53.508;10.476;2023-08-12T14:41:28;7.78;;;6.70;;
75542;SDS011;64129;53.508;10.476;2023-08-12T14:43:55;7.97;;;7.13;;
75542;SDS011;64129;53.508;10.476;2023-08-12T14:46:21;7.72;;;6.90;;
75542;SDS011;64129;53.508;10.476;2023-08-12T14:48:48;8.68;;;7.78;;
75542;SDS011;64129;53.508;10.476;2023-08-12T14:51:15;8.68;;;7.78;;
75542;SDS011;64129;53.508;10.476;2023-08-12T14:53:41;9.38;;;8.48;;
75542;SDS011;64129;53.508;10.476;2023-08-12T14:56:08;9.80;;;8.80;;
75542;SDS011;64129;53.508;10.476;2023-08-12T14:58:35;8.90;;;8.00;;
75542;SDS011;64129;53.508;10.476;2023-08-12T15:01:02;8.57;;;7.68;;
75542;SDS011;64129;53.508;10.476;2023-08-12T15:03:29;11.00;;;8.98;;